createdAt,value
2023-02-09T00:00:48.722Z,15.47
2023-02-09T00:03:18.584Z,15.97
2023-02-09T00:05:47.962Z,15.63
2023-02-09T00:08:17.044Z,15.43
2023-02-09T00:10:48.486Z,16.00
2023-02-09T00:13:24.239Z,16.37
2023-02-09T00:15:59.056Z,15.97
2023-02-09T00:18:30.133Z,15.23
2023-02-09T00:21:00.595Z,15.60
2023-02-09T00:23:31.914Z,15.97
2023-02-09T00:26:02.028Z,16.47
2023-02-09T00:28:33.783Z,16.10
2023-02-09T00:31:13.008Z,15.47
2023-02-09T00:33:44.401Z,16.40
2023-02-09T00:36:15.722Z,15.97
2023-02-09T00:38:45.849Z,15.27
2023-02-09T00:41:17.800Z,15.40
2023-02-09T00:43:49.013Z,15.77
2023-02-09T00:46:21.717Z,15.37
2023-02-09T00:48:50.916Z,13.83
2023-02-09T00:51:20.105Z,14.17
2023-02-09T00:53:56.477Z,14.40
2023-02-09T00:56:26.707Z,13.23
2023-02-09T00:58:58.973Z,13.87
2023-02-09T01:01:28.625Z,13.57
2023-02-09T01:03:59.615Z,13.30
2023-02-09T01:06:31.091Z,13.97
2023-02-09T01:09:00.674Z,13.87
2023-02-09T01:11:34.091Z,13.90
2023-02-09T01:14:04.986Z,13.00
2023-02-09T01:16:35.594Z,13.60
2023-02-09T01:19:07.613Z,12.10
2023-02-09T01:21:37.119Z,12.10
2023-02-09T01:24:13.794Z,11.87
2023-02-09T01:26:43.092Z,13.20
2023-02-09T01:29:19.065Z,11.93
2023-02-09T01:31:49.932Z,12.93
2023-02-09T01:34:19.967Z,12.63
2023-02-09T01:36:51.136Z,11.87
2023-02-09T01:39:20.754Z,12.10
2023-02-09T01:41:52.012Z,12.60
2023-02-09T01:44:58.420Z,11.93
2023-02-09T01:47:29.507Z,11.33
2023-02-09T01:49:58.974Z,12.17
2023-02-09T01:52:31.141Z,11.40
2023-02-09T01:55:03.931Z,12.07
2023-02-09T01:57:38.188Z,11.60
2023-02-09T02:00:11.972Z,11.93
2023-02-09T02:02:44.851Z,11.63
2023-02-09T02:05:14.670Z,12.63
2023-02-09T02:07:48.811Z,12.60
2023-02-09T11:27:19.125Z,15.37
2023-02-09T11:29:53.347Z,14.97
2023-02-09T23:15:08.878Z,15.63
2023-02-09T23:17:37.996Z,15.53
2023-02-09T23:20:07.549Z,15.60
2023-02-09T23:22:36.608Z,16.43
2023-02-09T23:25:05.603Z,16.33
2023-02-09T23:27:34.703Z,14.83
2023-02-09T23:30:03.720Z,14.97
2023-02-09T23:32:34.096Z,14.77
2023-02-09T23:35:02.944Z,15.83
2023-02-09T23:37:37.482Z,15.77
2023-02-09T23:40:07.679Z,16.10
2023-02-09T23:42:36.624Z,14.93
2023-02-09T23:45:06.470Z,15.93
2023-02-09T23:47:36.917Z,14.90
2023-02-09T23:50:06.051Z,16.30
2023-02-09T23:52:35.125Z,15.90
2023-02-09T23:55:04.503Z,15.93
2023-02-09T23:57:33.458Z,15.40
